createdAt,value
2022-09-03T00:00:26.189Z,97438.31
2022-09-03T00:03:34.306Z,97428.19
2022-09-03T00:06:43.383Z,97436.28
2022-09-03T00:09:51.282Z,97431.41
2022-09-03T00:13:00.316Z,97427.00
2022-09-03T00:16:11.062Z,97428.81
2022-09-03T00:19:19.005Z,97418.44
2022-09-03T00:22:28.025Z,97424.97
2022-09-03T00:25:39.346Z,97427.69
2022-09-03T00:28:47.420Z,97423.91
2022-09-03T00:31:54.704Z,97426.22
2022-09-03T00:35:02.053Z,97419.31
2022-09-03T00:38:04.988Z,97421.97
2022-09-03T00:41:11.413Z,97424.59
2022-09-03T00:44:39.890Z,97419.75
2022-09-03T00:47:56.287Z,97417.69
2022-09-03T00:51:11.931Z,97414.22
2022-09-03T00:54:25.578Z,97411.63
2022-09-03T00:57:42.158Z,97417.31
2022-09-03T01:00:46.519Z,97411.34
2022-09-03T01:03:58.763Z,97416.06
2022-09-03T01:07:09.853Z,97418.31
2022-09-03T01:10:27.414Z,97420.94
2022-09-03T01:13:34.941Z,97427.41
2022-09-03T01:16:47.033Z,97431.50
2022-09-03T01:20:13.587Z,97433.91
2022-09-03T01:23:55.326Z,97439.97
2022-09-03T01:27:16.289Z,97444.00
2022-09-03T01:30:24.151Z,97442.94
2022-09-03T01:33:34.845Z,97443.91
2022-09-03T01:36:46.074Z,97431.19
2022-09-03T01:40:02.095Z,97432.81
2022-09-03T01:43:19.371Z,97437.72
2022-09-03T01:46:27.623Z,97438.19
2022-09-03T01:49:40.339Z,97443.56
2022-09-03T01:52:53.565Z,97434.81
2022-09-03T01:56:13.370Z,97430.00
2022-09-03T01:59:23.563Z,97431.78
2022-09-03T02:02:30.852Z,97425.22
2022-09-03T02:05:35.727Z,97430.88
2022-09-03T02:08:38.522Z,97428.78
2022-09-03T02:11:42.264Z,97434.34
2022-09-03T02:14:45.074Z,97428.31
2022-09-03T02:17:55.232Z,97431.25
2022-09-03T02:21:00.208Z,97432.25
2022-09-03T02:24:05.671Z,97425.13
2022-09-03T02:27:08.471Z,97436.69
2022-09-03T02:30:12.299Z,97440.97
2022-09-03T02:33:17.617Z,97440.63
2022-09-03T02:36:27.585Z,97444.06
2022-09-03T02:39:30.591Z,97430.63
2022-09-03T02:42:33.781Z,97429.00
2022-09-03T02:45:41.864Z,97427.44
2022-09-03T02:48:46.019Z,97439.75
2022-09-03T02:51:48.842Z,97439.50
2022-09-03T02:54:51.665Z,97429.31
2022-09-03T02:57:54.458Z,97442.84
2022-09-03T03:00:57.276Z,97441.91
2022-09-03T03:04:01.500Z,97438.84
2022-09-03T03:07:04.329Z,97444.63
2022-09-03T03:10:08.591Z,97438.06
2022-09-03T03:13:11.435Z,97448.03
2022-09-03T03:16:16.010Z,97449.34
2022-09-03T03:19:20.364Z,97446.41
2022-09-03T03:22:23.256Z,97440.22
2022-09-03T03:25:26.438Z,97446.75
2022-09-03T03:28:29.256Z,97442.09
2022-09-03T03:31:32.911Z,97437.31
2022-09-03T03:34:37.698Z,97440.00
2022-09-03T03:37:40.498Z,97440.72
2022-09-03T03:40:43.232Z,97436.94
2022-09-03T03:43:46.308Z,97440.28
2022-09-03T03:46:49.083Z,97444.56
2022-09-03T03:49:53.218Z,97454.44
2022-09-03T03:52:56.303Z,97447.03
2022-09-03T03:56:01.256Z,97447.56
2022-09-03T03:59:04.921Z,97444.91
2022-09-03T04:02:07.937Z,97445.97
2022-09-03T04:05:12.206Z,97440.19
2022-09-03T04:08:15.005Z,97433.31
2022-09-03T04:11:19.491Z,97437.38
2022-09-03T04:14:22.286Z,97446.19
2022-09-03T04:17:25.597Z,97440.94
2022-09-03T04:20:29.813Z,97440.56
2022-09-03T04:23:33.364Z,97439.84
2022-09-03T04:26:36.483Z,97445.00
2022-09-03T04:29:39.359Z,97446.53
2022-09-03T04:32:54.726Z,97436.03
2022-09-03T04:36:06.441Z,97443.81
2022-09-03T04:39:09.250Z,97442.50
2022-09-03T04:42:12.065Z,97448.13
2022-09-03T04:45:19.630Z,97438.22
2022-09-03T04:48:22.416Z,97434.59
2022-09-03T04:51:28.683Z,97433.88
2022-09-03T04:54:31.792Z,97434.81
2022-09-03T04:57:37.955Z,97427.84
2022-09-03T05:00:40.884Z,97440.91
2022-09-03T05:03:43.772Z,97438.69
2022-09-03T05:06:47.888Z,97437.75
2022-09-03T05:09:50.653Z,97437.00
2022-09-03T05:12:59.797Z,97446.59
2022-09-03T05:16:03.893Z,97453.25
2022-09-03T05:19:08.159Z,97450.72
2022-09-03T05:22:25.894Z,97437.66
2022-09-03T05:25:28.885Z,97444.31
2022-09-03T05:28:32.228Z,97437.31
2022-09-03T05:31:37.021Z,97443.34
2022-09-03T05:34:40.011Z,97445.75
2022-09-03T05:37:44.311Z,97438.69
2022-09-03T05:40:47.139Z,97441.41
2022-09-03T05:43:56.099Z,97447.69
2022-09-03T05:46:59.812Z,97450.88
2022-09-03T05:50:02.653Z,97443.03
2022-09-03T05:53:06.790Z,97446.59
2022-09-03T05:56:12.692Z,97451.84
2022-09-03T05:59:15.481Z,97445.00
2022-09-03T06:02:20.106Z,97445.56
2022-09-03T06:05:23.074Z,97450.97
2022-09-03T06:08:27.325Z,97438.53
2022-09-03T06:11:31.887Z,97442.69
2022-09-03T06:14:34.733Z,97439.81
2022-09-03T06:17:39.057Z,97446.59
2022-09-03T06:20:41.868Z,97447.09
2022-09-03T06:23:51.798Z,97450.47
2022-09-03T06:26:54.885Z,97441.66
2022-09-03T06:29:59.012Z,97443.59
2022-09-03T06:33:01.842Z,97452.38
2022-09-03T06:36:09.030Z,97447.09
2022-09-03T06:39:13.343Z,97449.41
2022-09-03T06:42:16.167Z,97449.91
2022-09-03T06:45:18.954Z,97449.03
2022-09-03T06:48:21.786Z,97448.88
2022-09-03T06:51:26.221Z,97451.38
2022-09-03T06:54:30.410Z,97442.25
2022-09-03T06:57:33.393Z,97460.03
2022-09-03T07:00:36.280Z,97455.78
2022-09-03T07:03:40.588Z,97450.06
2022-09-03T07:06:44.398Z,97441.78
2022-09-03T07:09:48.630Z,97444.44
2022-09-03T07:12:51.500Z,97447.88
2022-09-03T07:16:01.499Z,97450.53
2022-09-03T07:19:05.179Z,97455.41
2022-09-03T07:22:08.447Z,97460.47
2022-09-03T07:25:12.578Z,97456.38
2022-09-03T07:28:17.022Z,97454.25
2022-09-03T07:31:26.061Z,97457.72
2022-09-03T07:34:30.300Z,97460.25
2022-09-03T07:37:33.716Z,97462.91
2022-09-03T07:40:39.360Z,97464.09
2022-09-03T07:43:44.109Z,97463.88
2022-09-03T07:46:47.953Z,97462.75
2022-09-03T07:49:50.960Z,97462.75
2022-09-03T07:52:57.764Z,97461.94
2022-09-03T07:56:06.924Z,97470.25
2022-09-03T07:59:11.967Z,97469.78
2022-09-03T08:02:14.907Z,97477.13
2022-09-03T08:05:20.460Z,97478.69
2022-09-03T08:08:23.853Z,97472.06
2022-09-03T08:11:29.230Z,97472.81
2022-09-03T08:14:32.083Z,97467.84
2022-09-03T08:17:35.064Z,97475.41
2022-09-03T08:20:40.073Z,97473.44
2022-09-03T08:23:44.812Z,97478.72
2022-09-03T08:26:51.997Z,97478.47
2022-09-03T08:29:55.318Z,97467.72
2022-09-03T08:32:58.279Z,97469.31
2022-09-03T08:36:01.110Z,97464.19
2022-09-03T08:39:09.747Z,97459.75
2022-09-03T08:42:38.435Z,97457.94
2022-09-03T08:45:42.047Z,97462.75
2022-09-03T08:48:47.092Z,97460.28
2022-09-03T08:51:54.086Z,97461.97
2022-09-03T08:55:03.610Z,97463.34
2022-09-03T08:58:14.234Z,97461.00
2022-09-03T09:01:32.373Z,97450.19
2022-09-03T09:04:48.817Z,97454.72
2022-09-03T09:08:00.185Z,97455.25
2022-09-03T09:11:12.736Z,97461.44
2022-09-03T09:14:21.233Z,97446.31
2022-09-03T09:17:40.260Z,97445.13
2022-09-03T09:20:49.289Z,97442.34
2022-09-03T09:23:54.187Z,97448.28
2022-09-03T09:27:00.936Z,97444.56
2022-09-03T09:30:07.527Z,97439.59
2022-09-03T09:33:11.643Z,97438.63
2022-09-03T09:36:19.442Z,97439.22
2022-09-03T09:39:23.423Z,97431.38
2022-09-03T09:42:27.361Z,97427.06
2022-09-03T09:45:34.240Z,97426.03
2022-09-03T09:48:42.670Z,97416.97
2022-09-03T09:51:45.494Z,97420.72
2022-09-03T09:54:48.487Z,97418.84
2022-09-03T09:57:54.553Z,97419.41
2022-09-03T10:01:04.616Z,97416.66
2022-09-03T10:04:12.518Z,97414.44
2022-09-03T10:07:27.223Z,97410.81
2022-09-03T10:10:33.194Z,97413.03
2022-09-03T10:13:43.410Z,97409.28
2022-09-03T10:16:51.883Z,97410.91
2022-09-03T10:20:20.813Z,97406.03
2022-09-03T10:23:25.845Z,97411.47
2022-09-03T10:26:32.426Z,97413.00
2022-09-03T10:29:36.000Z,97406.25
2022-09-03T10:32:50.640Z,97398.34
2022-09-03T10:36:00.440Z,97404.66
2022-09-03T10:39:07.521Z,97400.03
2022-09-03T10:42:35.804Z,97399.25
2022-09-03T10:45:45.324Z,97398.31
2022-09-03T10:49:18.957Z,97395.56
2022-09-03T10:52:30.327Z,97389.13
2022-09-03T10:55:43.251Z,97388.97
2022-09-03T10:58:59.458Z,97386.28
2022-09-03T11:02:17.201Z,97390.97
2022-09-03T11:05:29.859Z,97383.69
2022-09-03T11:08:37.947Z,97376.00
2022-09-03T11:11:49.381Z,97372.25
2022-09-03T11:14:58.797Z,97369.50
2022-09-03T11:18:09.718Z,97372.00
2022-09-03T11:21:18.180Z,97367.72
2022-09-03T11:24:23.873Z,97349.16
2022-09-03T11:27:43.877Z,97355.38
2022-09-03T11:31:00.367Z,97347.53
2022-09-03T11:34:09.257Z,97344.72
2022-09-03T11:37:22.813Z,97343.25
2022-09-03T11:40:33.401Z,97335.69
2022-09-03T11:43:36.940Z,97339.69
2022-09-03T11:46:41.645Z,97341.13
2022-09-03T11:49:50.821Z,97337.44
2022-09-03T11:52:56.836Z,97339.53
2022-09-03T11:56:14.927Z,97338.72
2022-09-03T11:59:20.579Z,97338.34
2022-09-03T12:02:28.765Z,97334.84
2022-09-03T12:05:42.832Z,97342.09
2022-09-03T12:09:02.646Z,97334.78
2022-09-03T12:12:24.064Z,97330.50
2022-09-03T12:15:43.170Z,97324.59
2022-09-03T12:18:49.319Z,97313.56
2022-09-03T12:21:52.664Z,97315.81
2022-09-03T12:24:57.115Z,97319.00
2022-09-03T12:28:03.959Z,97321.97
2022-09-03T12:31:21.298Z,97315.31
2022-09-03T12:34:25.824Z,97311.00
2022-09-03T12:44:28.448Z,97307.47
2022-09-03T12:47:36.561Z,97304.53
2022-09-03T12:50:42.505Z,97311.78
2022-09-03T12:53:53.410Z,97299.34
2022-09-03T12:57:00.614Z,97301.28
2022-09-03T13:00:07.737Z,97288.34
2022-09-03T13:03:16.243Z,97293.34
2022-09-03T13:06:22.291Z,97282.03
2022-09-03T13:09:29.967Z,97282.91
2022-09-03T13:12:36.098Z,97282.00
2022-09-03T13:15:39.011Z,97284.31
2022-09-03T13:18:46.704Z,97281.66
2022-09-03T13:21:55.721Z,97285.41
2022-09-03T13:25:17.555Z,97270.09
2022-09-03T13:28:40.119Z,97276.22
2022-09-03T13:31:49.189Z,97269.13
2022-09-03T13:34:55.774Z,97259.81
2022-09-03T13:38:07.599Z,97265.38
2022-09-03T13:41:19.742Z,97274.84
2022-09-03T13:44:35.899Z,97276.34
2022-09-03T13:48:04.414Z,97276.41
2022-09-03T13:51:14.607Z,97275.91
2022-09-03T13:54:47.721Z,97267.28
2022-09-03T13:57:52.230Z,97261.34
2022-09-03T14:01:11.662Z,97256.50
2022-09-03T14:04:23.076Z,97264.78
2022-09-03T14:07:35.433Z,97260.09
2022-09-03T14:10:54.377Z,97260.25
2022-09-03T14:14:11.813Z,97249.00
2022-09-03T14:17:24.702Z,97251.75
2022-09-03T14:20:30.552Z,97253.78
2022-09-03T14:23:41.639Z,97252.41
2022-09-03T14:26:53.568Z,97259.06
2022-09-03T14:30:01.394Z,97256.75
2022-09-03T14:33:15.625Z,97256.66
2022-09-03T14:36:25.168Z,97254.44
2022-09-03T14:39:34.383Z,97250.41
2022-09-03T14:43:03.470Z,97253.38
2022-09-03T14:46:19.443Z,97257.66
2022-09-03T14:49:35.669Z,97251.09
2022-09-03T14:52:55.574Z,97252.00
2022-09-03T14:56:19.092Z,97262.94
2022-09-03T14:59:40.212Z,97255.34
2022-09-03T15:03:09.714Z,97245.03
2022-09-03T15:06:28.088Z,97246.94
2022-09-03T15:09:41.208Z,97230.22
2022-09-03T15:12:47.518Z,97231.28
2022-09-03T15:16:02.287Z,97236.97
2022-09-03T15:19:14.550Z,97228.72
2022-09-03T15:22:35.692Z,97235.69
2022-09-03T15:25:56.718Z,97244.53
2022-09-03T15:29:15.273Z,97238.34
2022-09-03T15:32:32.375Z,97242.91
2022-09-03T15:35:58.564Z,97260.06
2022-09-03T15:39:07.770Z,97250.66
2022-09-03T15:42:19.562Z,97242.66
2022-09-03T15:45:34.413Z,97250.00
2022-09-03T15:48:48.698Z,97252.75
2022-09-03T15:52:07.787Z,97244.63
2022-09-03T15:55:15.711Z,97247.25
2022-09-03T15:58:27.859Z,97242.84
2022-09-03T16:01:41.083Z,97247.66
2022-09-03T16:05:06.085Z,97239.22
2022-09-03T16:08:19.410Z,97241.47
2022-09-03T16:11:36.428Z,97246.00
2022-09-03T16:14:42.905Z,97247.44
2022-09-03T16:17:56.954Z,97249.78
2022-09-03T16:21:05.560Z,97243.56
2022-09-03T16:24:17.824Z,97250.63
2022-09-03T16:27:26.409Z,97250.25
2022-09-03T16:30:49.554Z,97250.34
2022-09-03T16:34:04.767Z,97246.56
2022-09-03T16:37:20.939Z,97246.47
2022-09-03T16:40:32.662Z,97245.72
2022-09-03T16:43:46.126Z,97244.09
2022-09-03T16:46:59.703Z,97253.09
2022-09-03T16:50:17.713Z,97252.44
2022-09-03T16:53:34.998Z,97257.19
2022-09-03T16:56:59.814Z,97266.09
2022-09-03T17:00:10.922Z,97265.91
2022-09-03T17:03:57.555Z,97265.91
2022-09-03T17:07:13.330Z,97266.84
2022-09-03T17:10:24.311Z,97262.63
2022-09-03T17:13:59.307Z,97265.25
2022-09-03T17:17:14.134Z,97264.13
2022-09-03T17:20:24.009Z,97269.69
2022-09-03T17:23:53.097Z,97259.88
2022-09-03T17:27:21.002Z,97264.50
2022-09-03T17:30:40.743Z,97262.03
2022-09-03T17:34:04.790Z,97272.97
2022-09-03T17:37:20.566Z,97270.94
2022-09-03T17:40:37.243Z,97274.53
2022-09-03T17:43:50.106Z,97276.91
2022-09-03T17:47:06.902Z,97273.22
2022-09-03T17:50:19.896Z,97272.66
2022-09-03T17:53:26.919Z,97270.31
2022-09-03T17:56:35.285Z,97273.00
2022-09-03T17:59:45.852Z,97285.09
2022-09-03T18:02:58.309Z,97284.16
2022-09-03T18:06:09.025Z,97287.44
2022-09-03T18:09:26.148Z,97288.72
2022-09-03T18:12:39.469Z,97291.84
2022-09-03T18:15:52.274Z,97294.19
2022-09-03T18:19:03.892Z,97304.28
2022-09-03T18:22:27.179Z,97308.13
2022-09-03T18:25:49.939Z,97311.84
2022-09-03T18:29:18.267Z,97313.69
2022-09-03T18:32:39.358Z,97322.53
2022-09-03T18:36:03.054Z,97320.69
2022-09-03T18:39:33.773Z,97325.06
2022-09-03T18:43:10.388Z,97324.75
2022-09-03T18:50:31.129Z,97330.31
2022-09-03T18:54:04.262Z,97334.72
2022-09-03T18:57:36.443Z,97332.75
2022-09-03T19:01:02.055Z,97337.63
2022-09-03T19:04:29.437Z,97334.38
2022-09-03T19:07:59.955Z,97338.88
2022-09-03T19:11:31.236Z,97329.50
2022-09-03T19:15:07.859Z,97335.28
2022-09-03T19:18:35.131Z,97333.09
2022-09-03T19:22:01.064Z,97337.88
2022-09-03T19:25:24.747Z,97337.88
2022-09-03T19:28:49.318Z,97344.47
2022-09-03T19:32:15.425Z,97342.06
2022-09-03T19:35:42.330Z,97342.50
2022-09-03T19:39:14.063Z,97350.28
2022-09-03T19:42:40.721Z,97358.97
2022-09-03T19:46:13.246Z,97355.97
2022-09-03T19:49:42.762Z,97358.97
2022-09-03T19:53:09.659Z,97358.97
2022-09-03T19:56:36.632Z,97361.63
2022-09-03T20:00:02.841Z,97367.53
2022-09-03T20:03:35.239Z,97371.72
2022-09-03T20:06:57.849Z,97372.31
2022-09-03T20:10:23.966Z,97372.16
2022-09-03T20:13:27.203Z,97382.41
2022-09-03T20:16:35.653Z,97386.22
2022-09-03T20:19:52.287Z,97381.28
2022-09-03T20:23:00.545Z,97382.78
2022-09-03T20:26:19.311Z,97380.78
2022-09-03T20:29:38.540Z,97384.91
2022-09-03T20:33:24.821Z,97387.69
2022-09-03T20:36:35.481Z,97396.31
2022-09-03T20:39:55.161Z,97402.00
2022-09-03T20:43:25.647Z,97394.47
2022-09-03T20:46:50.225Z,97389.50
2022-09-03T20:50:05.479Z,97393.94
2022-09-03T20:53:19.486Z,97397.97
2022-09-03T20:56:31.767Z,97397.97
2022-09-03T20:59:47.272Z,97395.81
2022-09-03T21:03:08.344Z,97391.53
2022-09-03T21:06:24.076Z,97400.59
2022-09-03T21:09:34.224Z,97400.00
2022-09-03T21:12:48.104Z,97413.53
2022-09-03T21:15:58.961Z,97399.44
2022-09-03T21:19:11.640Z,97408.47
2022-09-03T21:22:25.187Z,97409.06
2022-09-03T21:25:33.988Z,97399.53
2022-09-03T21:28:41.238Z,97397.72
2022-09-03T21:31:52.607Z,97387.25
2022-09-03T21:35:06.242Z,97394.28
2022-09-03T21:38:14.235Z,97396.34
2022-09-03T21:41:27.065Z,97398.31
2022-09-03T21:44:47.876Z,97395.94
2022-09-03T21:47:58.244Z,97398.72
2022-09-03T21:51:03.311Z,97406.63
2022-09-03T21:54:09.381Z,97398.25
2022-09-03T21:57:14.887Z,97402.94
2022-09-03T22:00:20.805Z,97412.16
2022-09-03T22:03:23.714Z,97405.56
2022-09-03T22:06:32.794Z,97403.38
2022-09-03T22:09:45.825Z,97399.06
2022-09-03T22:12:58.801Z,97393.72
2022-09-03T22:16:13.429Z,97389.59
2022-09-03T22:19:16.531Z,97391.69
2022-09-03T22:22:26.631Z,97385.16
2022-09-03T22:25:38.315Z,97389.69
2022-09-03T22:28:49.940Z,97395.81
2022-09-03T22:32:00.167Z,97390.56
2022-09-03T22:35:42.771Z,97383.13
2022-09-03T22:39:04.040Z,97380.56
2022-09-03T22:42:33.140Z,97388.06
2022-09-03T22:45:51.104Z,97385.03
2022-09-03T22:49:11.684Z,97381.34
2022-09-03T22:52:28.672Z,97374.47
2022-09-03T22:55:31.703Z,97374.13
2022-09-03T22:58:38.407Z,97375.28
2022-09-03T23:01:46.162Z,97384.16
2022-09-03T23:04:56.796Z,97389.47
2022-09-03T23:08:06.695Z,97380.09
2022-09-03T23:11:25.247Z,97385.19
2022-09-03T23:14:34.611Z,97379.13
2022-09-03T23:17:41.604Z,97383.41
2022-09-03T23:20:55.339Z,97393.03
2022-09-03T23:24:03.606Z,97393.75
2022-09-03T23:27:08.764Z,97388.88
2022-09-03T23:30:11.734Z,97397.44
2022-09-03T23:33:14.563Z,97393.44
2022-09-03T23:36:57.953Z,97393.09
2022-09-03T23:40:20.000Z,97389.09
2022-09-03T23:43:59.582Z,97384.81
2022-09-03T23:47:13.500Z,97384.19
2022-09-03T23:50:29.904Z,97386.25
2022-09-03T23:53:53.548Z,97382.63
2022-09-03T23:57:18.173Z,97392.53
